sensor_id;sensor_type;location;lat;lon;timestamp;pressure;altitude;pressure_sealevel;temperature;humidity
37694;BME280;23531;50.122;8.644;2023-05-02T00:01:53;100622.34;;;15.64;nan
37694;BME280;23531;50.122;8.644;2023-05-02T00:03:54;100623.75;;;15.67;nan
37694;BME280;23531;50.122;8.644;2023-05-02T00:05:55;100622.72;;;15.56;nan
37694;BME280;23531;50.122;8.644;2023-05-02T00:07:57;100624.59;;;15.55;nan
37694;BME280;23531;50.122;8.644;2023-05-02T00:09:58;100623.84;;;15.48;nan
37694;BME280;23531;50.122;8.644;2023-05-02T00:12:01;100623.84;;;15.37;nan
37694;BME280;23531;50.122;8.644;2023-05-02T00:14:04;100619.38;;;15.42;nan
37694;BME280;23531;50.122;8.644;2023-05-02T00:16:05;100622.09;;;15.42;nan
37694;BME280;23531;50.122;8.644;2023-05-02T00:18:07;100619.84;;;15.27;nan
37694;BME280;23531;50.122;8.644;2023-05-02T00:20:08;100615.63;;;15.32;nan
37694;BME280;23531;50.122;8.644;2023-05-02T00:22:10;100627.06;;;15.34;nan
37694;BME280;23531;50.122;8.644;2023-05-02T00:24:11;100620.91;;;15.38;nan
37694;BME280;23531;50.122;8.644;2023-05-02T00:26:13;100613.59;;;15.27;nan
37694;BME280;23531;50.122;8.644;2023-05-02T00:28:14;100618.44;;;15.37;nan
37694;BME280;23531;50.122;8.644;2023-05-02T00:30:17;100623.59;;;15.50;nan
37694;BME280;23531;50.122;8.644;2023-05-02T00:32:20;100626.91;;;15.52;nan
37694;BME280;23531;50.122;8.644;2023-05-02T00:34:21;100627.91;;;15.57;nan
37694;BME280;23531;50.122;8.644;2023-05-02T00:36:22;100624.19;;;15.52;nan
37694;BME280;23531;50.122;8.644;2023-05-02T00:38:23;100622.72;;;15.56;nan
37694;BME280;23531;50.122;8.644;2023-05-02T00:40:24;100629.28;;;15.60;nan
37694;BME280;23531;50.122;8.644;2023-05-02T00:42:26;100631.16;;;15.59;nan
37694;BME280;23531;50.122;8.644;2023-05-02T00:44:30;100630.59;;;15.57;nan
37694;BME280;23531;50.122;8.644;2023-05-02T00:46:33;100634.09;;;15.58;nan
37694;BME280;23531;50.122;8.644;2023-05-02T00:48:34;100635.06;;;15.64;nan
37694;BME280;23531;50.122;8.644;2023-05-02T00:50:36;100629.75;;;15.69;nan
37694;BME280;23531;50.122;8.644;2023-05-02T00:52:37;100627.72;;;15.52;nan
37694;BME280;23531;50.122;8.644;2023-05-02T00:54:39;100631.28;;;15.41;nan
37694;BME280;23531;50.122;8.644;2023-05-02T00:56:40;100628.56;;;15.41;nan
37694;BME280;23531;50.122;8.644;2023-05-02T00:58:42;100634.59;;;15.43;nan
37694;BME280;23531;50.122;8.644;2023-05-02T01:00:47;100638.44;;;15.47;nan
37694;BME280;23531;50.122;8.644;2023-05-02T01:02:55;100630.09;;;15.49;nan
37694;BME280;23531;50.122;8.644;2023-05-02T01:04:59;100635.50;;;15.37;nan
37694;BME280;23531;50.122;8.644;2023-05-02T01:07:07;100635.06;;;15.29;nan
37694;BME280;23531;50.122;8.644;2023-05-02T01:09:14;100638.34;;;15.31;nan
37694;BME280;23531;50.122;8.644;2023-05-02T01:11:19;100639.78;;;15.33;nan
37694;BME280;23531;50.122;8.644;2023-05-02T01:13:25;100642.94;;;15.42;nan
37694;BME280;23531;50.122;8.644;2023-05-02T01:15:28;100647.91;;;15.21;nan
37694;BME280;23531;50.122;8.644;2023-05-02T01:17:31;100653.66;;;15.25;nan
37694;BME280;23531;50.122;8.644;2023-05-02T01:19:35;100655.66;;;15.18;nan
37694;BME280;23531;50.122;8.644;2023-05-02T01:21:38;100641.97;;;15.01;nan
37694;BME280;23531;50.122;8.644;2023-05-02T01:23:44;100656.25;;;15.08;nan
37694;BME280;23531;50.122;8.644;2023-05-02T01:25:49;100649.97;;;14.96;nan
37694;BME280;23531;50.122;8.644;2023-05-02T01:27:57;100655.16;;;14.98;nan
37694;BME280;23531;50.122;8.644;2023-05-02T01:30:03;100657.75;;;14.93;nan
37694;BME280;23531;50.122;8.644;2023-05-02T01:32:06;100661.16;;;14.88;nan
37694;BME280;23531;50.122;8.644;2023-05-02T01:34:09;100656.56;;;14.88;nan
37694;BME280;23531;50.122;8.644;2023-05-02T01:36:10;100665.75;;;14.87;nan
37694;BME280;23531;50.122;8.644;2023-05-02T01:38:13;100662.66;;;14.84;nan
37694;BME280;23531;50.122;8.644;2023-05-02T01:40:15;100664.91;;;14.87;nan
37694;BME280;23531;50.122;8.644;2023-05-02T01:42:18;100674.09;;;14.86;nan
37694;BME280;23531;50.122;8.644;2023-05-02T01:44:20;100672.91;;;14.82;nan
37694;BME280;23531;50.122;8.644;2023-05-02T01:46:23;100674.19;;;14.79;nan
37694;BME280;23531;50.122;8.644;2023-05-02T01:48:25;100680.78;;;14.83;nan
37694;BME280;23531;50.122;8.644;2023-05-02T01:50:27;100675.16;;;14.85;nan
37694;BME280;23531;50.122;8.644;2023-05-02T01:52:28;100671.88;;;14.95;nan
37694;BME280;23531;50.122;8.644;2023-05-02T01:54:30;100678.50;;;14.99;nan
37694;BME280;23531;50.122;8.644;2023-05-02T01:56:34;100681.88;;;14.94;nan
37694;BME280;23531;50.122;8.644;2023-05-02T01:58:35;100685.06;;;15.03;nan
37694;BME280;23531;50.122;8.644;2023-05-02T02:00:37;100686.25;;;15.07;nan
37694;BME280;23531;50.122;8.644;2023-05-02T02:02:41;100693.56;;;15.06;nan
37694;BME280;23531;50.122;8.644;2023-05-02T02:04:43;100692.72;;;15.06;nan
37694;BME280;23531;50.122;8.644;2023-05-02T02:06:49;100693.06;;;14.98;nan
37694;BME280;23531;50.122;8.644;2023-05-02T02:08:52;100694.72;;;14.99;nan
37694;BME280;23531;50.122;8.644;2023-05-02T02:10:56;100697.09;;;15.07;nan
37694;BME280;23531;50.122;8.644;2023-05-02T02:12:59;100706.38;;;14.87;nan
37694;BME280;23531;50.122;8.644;2023-05-02T02:15:02;100702.56;;;14.77;nan
37694;BME280;23531;50.122;8.644;2023-05-02T02:17:04;100705.31;;;14.88;nan
37694;BME280;23531;50.122;8.644;2023-05-02T02:19:09;100701.19;;;14.98;nan
37694;BME280;23531;50.122;8.644;2023-05-02T02:21:12;100700.34;;;14.85;nan
37694;BME280;23531;50.122;8.644;2023-05-02T02:23:16;100705.38;;;14.82;nan
37694;BME280;23531;50.122;8.644;2023-05-02T02:25:19;100709.38;;;14.79;nan
37694;BME280;23531;50.122;8.644;2023-05-02T02:27:20;100709.25;;;14.74;nan
37694;BME280;23531;50.122;8.644;2023-05-02T02:29:22;100709.03;;;14.76;nan
37694;BME280;23531;50.122;8.644;2023-05-02T02:31:23;100713.66;;;14.87;nan
37694;BME280;23531;50.122;8.644;2023-05-02T02:33:30;100721.66;;;14.94;nan
37694;BME280;23531;50.122;8.644;2023-05-02T02:35:34;100725.91;;;14.89;nan
37694;BME280;23531;50.122;8.644;2023-05-02T02:37:38;100725.53;;;14.86;nan
37694;BME280;23531;50.122;8.644;2023-05-02T02:39:43;100726.38;;;14.86;nan
37694;BME280;23531;50.122;8.644;2023-05-02T02:41:48;100723.50;;;14.81;nan
37694;BME280;23531;50.122;8.644;2023-05-02T02:43:52;100724.09;;;14.83;nan
37694;BME280;23531;50.122;8.644;2023-05-02T02:46:01;100733.72;;;14.79;nan
37694;BME280;23531;50.122;8.644;2023-05-02T02:48:10;100727.16;;;14.75;nan
37694;BME280;23531;50.122;8.644;2023-05-02T02:50:19;100725.50;;;14.74;nan
37694;BME280;23531;50.122;8.644;2023-05-02T02:52:26;100726.66;;;14.67;nan
37694;BME280;23531;50.122;8.644;2023-05-02T02:54:29;100728.97;;;14.63;nan
37694;BME280;23531;50.122;8.644;2023-05-02T02:56:33;100731.47;;;14.65;nan
37694;BME280;23531;50.122;8.644;2023-05-02T02:58:38;100729.59;;;14.65;nan
37694;BME280;23531;50.122;8.644;2023-05-02T03:00:43;100726.59;;;14.55;nan
37694;BME280;23531;50.122;8.644;2023-05-02T03:02:45;100734.28;;;14.40;nan
37694;BME280;23531;50.122;8.644;2023-05-02T03:04:46;100726.06;;;14.28;nan
37694;BME280;23531;50.122;8.644;2023-05-02T03:06:51;100731.38;;;14.35;nan
37694;BME280;23531;50.122;8.644;2023-05-02T03:08:54;100736.66;;;14.48;nan
37694;BME280;23531;50.122;8.644;2023-05-02T03:10:55;100731.13;;;14.43;nan
37694;BME280;23531;50.122;8.644;2023-05-02T03:12:56;100737.06;;;14.51;nan
37694;BME280;23531;50.122;8.644;2023-05-02T03:15:01;100746.59;;;14.54;nan
37694;BME280;23531;50.122;8.644;2023-05-02T03:17:05;100743.72;;;14.49;nan
37694;BME280;23531;50.122;8.644;2023-05-02T03:19:07;100745.09;;;14.40;nan
37694;BME280;23531;50.122;8.644;2023-05-02T03:21:08;100746.13;;;14.39;nan
37694;BME280;23531;50.122;8.644;2023-05-02T03:23:09;100759.19;;;14.24;nan
37694;BME280;23531;50.122;8.644;2023-05-02T03:25:12;100758.75;;;14.08;nan
37694;BME280;23531;50.122;8.644;2023-05-02T03:27:13;100756.06;;;14.08;nan
37694;BME280;23531;50.122;8.644;2023-05-02T03:29:14;100765.97;;;14.14;nan
37694;BME280;23531;50.122;8.644;2023-05-02T03:31:16;100766.88;;;14.27;nan
37694;BME280;23531;50.122;8.644;2023-05-02T03:33:17;100772.28;;;14.27;nan
37694;BME280;23531;50.122;8.644;2023-05-02T03:35:19;100773.63;;;14.17;nan
37694;BME280;23531;50.122;8.644;2023-05-02T03:37:20;100778.00;;;14.18;nan
37694;BME280;23531;50.122;8.644;2023-05-02T03:39:21;100780.16;;;14.28;nan
37694;BME280;23531;50.122;8.644;2023-05-02T03:41:24;100781.00;;;14.29;nan
37694;BME280;23531;50.122;8.644;2023-05-02T03:43:25;100784.53;;;14.29;nan
37694;BME280;23531;50.122;8.644;2023-05-02T03:45:27;100784.09;;;14.32;nan
37694;BME280;23531;50.122;8.644;2023-05-02T03:47:28;100789.25;;;14.34;nan
37694;BME280;23531;50.122;8.644;2023-05-02T03:49:29;100792.44;;;14.31;nan
37694;BME280;23531;50.122;8.644;2023-05-02T03:51:30;100790.16;;;14.28;nan
37694;BME280;23531;50.122;8.644;2023-05-02T03:53:33;100792.78;;;14.16;nan
37694;BME280;23531;50.122;8.644;2023-05-02T03:55:37;100789.34;;;14.09;nan
37694;BME280;23531;50.122;8.644;2023-05-02T03:57:40;100795.72;;;14.14;nan
37694;BME280;23531;50.122;8.644;2023-05-02T03:59:41;100794.97;;;14.26;nan
37694;BME280;23531;50.122;8.644;2023-05-02T04:01:47;100798.41;;;14.14;nan
37694;BME280;23531;50.122;8.644;2023-05-02T04:03:48;100801.13;;;14.14;nan
37694;BME280;23531;50.122;8.644;2023-05-02T04:05:50;100805.47;;;13.97;nan
37694;BME280;23531;50.122;8.644;2023-05-02T04:07:51;100802.72;;;13.79;nan
37694;BME280;23531;50.122;8.644;2023-05-02T04:09:52;100802.59;;;13.92;nan
37694;BME280;23531;50.122;8.644;2023-05-02T04:11:54;100800.72;;;14.11;nan
37694;BME280;23531;50.122;8.644;2023-05-02T04:13:56;100810.59;;;14.05;nan
37694;BME280;23531;50.122;8.644;2023-05-02T04:15:57;100814.91;;;13.88;nan
37694;BME280;23531;50.122;8.644;2023-05-02T04:17:59;100813.16;;;13.75;nan
37694;BME280;23531;50.122;8.644;2023-05-02T04:20:00;100817.72;;;13.75;nan
37694;BME280;23531;50.122;8.644;2023-05-02T04:22:02;100811.75;;;13.91;nan
37694;BME280;23531;50.122;8.644;2023-05-02T04:24:03;100825.22;;;13.98;nan
37694;BME280;23531;50.122;8.644;2023-05-02T04:26:04;100827.09;;;13.97;nan
37694;BME280;23531;50.122;8.644;2023-05-02T04:28:06;100818.06;;;13.85;nan
37694;BME280;23531;50.122;8.644;2023-05-02T04:30:09;100830.53;;;13.86;nan
37694;BME280;23531;50.122;8.644;2023-05-02T04:32:10;100843.56;;;13.89;nan
37694;BME280;23531;50.122;8.644;2023-05-02T04:34:11;100846.06;;;13.91;nan
37694;BME280;23531;50.122;8.644;2023-05-02T04:36:13;100852.91;;;13.93;nan
37694;BME280;23531;50.122;8.644;2023-05-02T04:38:15;100858.75;;;13.90;nan
37694;BME280;23531;50.122;8.644;2023-05-02T04:40:16;100863.41;;;13.83;nan
37694;BME280;23531;50.122;8.644;2023-05-02T04:42:17;100864.16;;;13.90;nan
37694;BME280;23531;50.122;8.644;2023-05-02T04:44:19;100870.50;;;14.02;nan
37694;BME280;23531;50.122;8.644;2023-05-02T04:46:21;100871.44;;;14.14;nan
37694;BME280;23531;50.122;8.644;2023-05-02T04:48:22;100876.09;;;14.07;nan
37694;BME280;23531;50.122;8.644;2023-05-02T04:50:24;100878.84;;;14.01;nan
37694;BME280;23531;50.122;8.644;2023-05-02T04:52:27;100883.47;;;14.18;nan
37694;BME280;23531;50.122;8.644;2023-05-02T04:54:28;100882.56;;;14.25;nan
37694;BME280;23531;50.122;8.644;2023-05-02T04:56:29;100890.91;;;14.23;nan
37694;BME280;23531;50.122;8.644;2023-05-02T04:58:30;100888.19;;;14.23;nan
37694;BME280;23531;50.122;8.644;2023-05-02T05:00:34;100894.38;;;14.30;nan
37694;BME280;23531;50.122;8.644;2023-05-02T05:02:36;100895.34;;;14.36;nan
37694;BME280;23531;50.122;8.644;2023-05-02T05:04:38;100899.63;;;14.25;nan
37694;BME280;23531;50.122;8.644;2023-05-02T05:06:39;100902.06;;;14.33;nan
37694;BME280;23531;50.122;8.644;2023-05-02T05:08:40;100903.34;;;14.31;nan
37694;BME280;23531;50.122;8.644;2023-05-02T05:10:44;100901.25;;;14.33;nan
37694;BME280;23531;50.122;8.644;2023-05-02T05:12:46;100913.59;;;14.22;nan
37694;BME280;23531;50.122;8.644;2023-05-02T05:14:48;100908.91;;;14.11;nan
37694;BME280;23531;50.122;8.644;2023-05-02T05:16:49;100916.66;;;14.07;nan
37694;BME280;23531;50.122;8.644;2023-05-02T05:18:52;100913.72;;;14.09;nan
37694;BME280;23531;50.122;8.644;2023-05-02T05:20:53;100914.78;;;14.08;nan
37694;BME280;23531;50.122;8.644;2023-05-02T05:22:55;100913.63;;;13.97;nan
37694;BME280;23531;50.122;8.644;2023-05-02T05:24:56;100921.72;;;13.97;nan
37694;BME280;23531;50.122;8.644;2023-05-02T05:26:57;100924.78;;;14.01;nan
37694;BME280;23531;50.122;8.644;2023-05-02T05:28:58;100931.44;;;14.05;nan
37694;BME280;23531;50.122;8.644;2023-05-02T05:31:03;100927.63;;;14.12;nan
37694;BME280;23531;50.122;8.644;2023-05-02T05:33:04;100930.78;;;14.09;nan
37694;BME280;23531;50.122;8.644;2023-05-02T05:35:08;100936.63;;;14.06;nan
37694;BME280;23531;50.122;8.644;2023-05-02T05:37:09;100941.34;;;14.11;nan
37694;BME280;23531;50.122;8.644;2023-05-02T05:39:10;100940.59;;;14.04;nan
37694;BME280;23531;50.122;8.644;2023-05-02T05:41:12;100941.59;;;14.09;nan
37694;BME280;23531;50.122;8.644;2023-05-02T05:43:13;100947.84;;;14.10;nan
37694;BME280;23531;50.122;8.644;2023-05-02T05:45:14;100960.34;;;14.04;nan
37694;BME280;23531;50.122;8.644;2023-05-02T05:47:18;100961.94;;;14.12;nan
37694;BME280;23531;50.122;8.644;2023-05-02T05:49:20;100958.81;;;14.15;nan
37694;BME280;23531;50.122;8.644;2023-05-02T05:51:24;100965.66;;;14.17;nan
37694;BME280;23531;50.122;8.644;2023-05-02T05:53:26;100964.44;;;14.13;nan
37694;BME280;23531;50.122;8.644;2023-05-02T05:55:27;100971.72;;;14.13;nan
37694;BME280;23531;50.122;8.644;2023-05-02T05:57:29;100968.50;;;14.23;nan
37694;BME280;23531;50.122;8.644;2023-05-02T05:59:30;100976.59;;;14.29;nan
37694;BME280;23531;50.122;8.644;2023-05-02T06:01:34;100967.78;;;14.34;nan
37694;BME280;23531;50.122;8.644;2023-05-02T06:03:37;100978.59;;;14.34;nan
37694;BME280;23531;50.122;8.644;2023-05-02T06:05:38;100976.53;;;14.36;nan
37694;BME280;23531;50.122;8.644;2023-05-02T06:07:41;100976.19;;;14.26;nan
37694;BME280;23531;50.122;8.644;2023-05-02T06:09:42;100989.91;;;14.31;nan
37694;BME280;23531;50.122;8.644;2023-05-02T06:11:43;100990.50;;;14.33;nan
37694;BME280;23531;50.122;8.644;2023-05-02T06:13:45;101000.31;;;14.27;nan
37694;BME280;23531;50.122;8.644;2023-05-02T06:15:46;100988.84;;;14.32;nan
37694;BME280;23531;50.122;8.644;2023-05-02T06:17:49;100987.63;;;14.28;nan
37694;BME280;23531;50.122;8.644;2023-05-02T06:19:50;100989.81;;;14.12;nan
37694;BME280;23531;50.122;8.644;2023-05-02T06:21:51;100986.34;;;14.05;nan
37694;BME280;23531;50.122;8.644;2023-05-02T06:23:54;100997.09;;;14.12;nan
37694;BME280;23531;50.122;8.644;2023-05-02T06:25:57;100989.59;;;14.14;nan
37694;BME280;23531;50.122;8.644;2023-05-02T06:27:58;100989.09;;;14.24;nan
37694;BME280;23531;50.122;8.644;2023-05-02T06:30:00;101006.97;;;14.31;nan
37694;BME280;23531;50.122;8.644;2023-05-02T06:32:01;101005.59;;;14.47;nan
37694;BME280;23531;50.122;8.644;2023-05-02T06:34:03;101010.50;;;14.57;nan
37694;BME280;23531;50.122;8.644;2023-05-02T06:36:04;101011.50;;;14.62;nan
37694;BME280;23531;50.122;8.644;2023-05-02T06:38:05;101019.19;;;14.65;nan
37694;BME280;23531;50.122;8.644;2023-05-02T06:40:09;101018.91;;;14.73;nan
37694;BME280;23531;50.122;8.644;2023-05-02T06:42:10;101018.16;;;14.84;nan
37694;BME280;23531;50.122;8.644;2023-05-02T06:44:12;101017.13;;;14.85;nan
37694;BME280;23531;50.122;8.644;2023-05-02T06:46:13;101023.56;;;14.84;nan
37694;BME280;23531;50.122;8.644;2023-05-02T06:48:14;101020.25;;;14.82;nan
37694;BME280;23531;50.122;8.644;2023-05-02T06:50:15;101020.88;;;14.84;nan
37694;BME280;23531;50.122;8.644;2023-05-02T06:52:17;101029.91;;;14.97;nan
37694;BME280;23531;50.122;8.644;2023-05-02T06:54:18;101032.94;;;15.07;nan
37694;BME280;23531;50.122;8.644;2023-05-02T06:56:22;101034.22;;;15.22;nan
37694;BME280;23531;50.122;8.644;2023-05-02T06:58:24;101039.38;;;15.24;nan
37694;BME280;23531;50.122;8.644;2023-05-02T07:00:25;101035.13;;;15.35;nan
37694;BME280;23531;50.122;8.644;2023-05-02T07:02:27;101036.31;;;15.39;nan
37694;BME280;23531;50.122;8.644;2023-05-02T07:04:28;101037.00;;;15.34;nan
37694;BME280;23531;50.122;8.644;2023-05-02T07:06:29;101040.53;;;14.98;nan
37694;BME280;23531;50.122;8.644;2023-05-02T07:08:30;101047.81;;;15.16;nan
37694;BME280;23531;50.122;8.644;2023-05-02T07:10:32;101047.84;;;15.34;nan
37694;BME280;23531;50.122;8.644;2023-05-02T07:12:34;101051.44;;;15.46;nan
37694;BME280;23531;50.122;8.644;2023-05-02T07:14:36;101052.63;;;15.50;nan
37694;BME280;23531;50.122;8.644;2023-05-02T07:16:37;101051.19;;;15.54;nan
37694;BME280;23531;50.122;8.644;2023-05-02T07:18:38;101053.13;;;15.66;nan
37694;BME280;23531;50.122;8.644;2023-05-02T07:20:41;101055.56;;;15.85;nan
37694;BME280;23531;50.122;8.644;2023-05-02T07:22:42;101061.81;;;16.16;nan
37694;BME280;23531;50.122;8.644;2023-05-02T07:24:43;101052.53;;;16.23;nan
37694;BME280;23531;50.122;8.644;2023-05-02T07:26:45;101066.41;;;16.15;nan
37694;BME280;23531;50.122;8.644;2023-05-02T07:28:47;101073.38;;;16.11;nan
37694;BME280;23531;50.122;8.644;2023-05-02T07:30:49;101074.66;;;16.09;nan
37694;BME280;23531;50.122;8.644;2023-05-02T07:32:50;101076.25;;;15.98;nan
37694;BME280;23531;50.122;8.644;2023-05-02T07:34:51;101072.00;;;15.90;nan
37694;BME280;23531;50.122;8.644;2023-05-02T07:36:53;101083.41;;;15.92;nan
37694;BME280;23531;50.122;8.644;2023-05-02T07:38:55;101077.19;;;15.74;nan
37694;BME280;23531;50.122;8.644;2023-05-02T07:40:56;101073.69;;;15.55;nan
37694;BME280;23531;50.122;8.644;2023-05-02T07:42:59;101082.94;;;15.66;nan
37694;BME280;23531;50.122;8.644;2023-05-02T07:45:02;101076.31;;;15.61;nan
37694;BME280;23531;50.122;8.644;2023-05-02T07:47:04;101082.50;;;15.69;nan
37694;BME280;23531;50.122;8.644;2023-05-02T07:49:05;101086.47;;;15.66;nan
37694;BME280;23531;50.122;8.644;2023-05-02T07:51:06;101075.91;;;15.58;nan
37694;BME280;23531;50.122;8.644;2023-05-02T07:53:08;101083.72;;;15.48;nan
37694;BME280;23531;50.122;8.644;2023-05-02T07:55:10;101088.19;;;15.42;nan
37694;BME280;23531;50.122;8.644;2023-05-02T07:57:11;101093.22;;;15.39;nan
37694;BME280;23531;50.122;8.644;2023-05-02T07:59:13;101101.88;;;15.29;nan
37694;BME280;23531;50.122;8.644;2023-05-02T08:01:15;101097.94;;;15.25;nan
37694;BME280;23531;50.122;8.644;2023-05-02T08:03:17;101098.56;;;15.27;nan
37694;BME280;23531;50.122;8.644;2023-05-02T08:05:18;101099.16;;;15.29;nan
37694;BME280;23531;50.122;8.644;2023-05-02T08:07:19;101097.81;;;15.20;nan
37694;BME280;23531;50.122;8.644;2023-05-02T08:09:20;101095.53;;;15.17;nan
37694;BME280;23531;50.122;8.644;2023-05-02T08:11:22;101097.81;;;15.20;nan
37694;BME280;23531;50.122;8.644;2023-05-02T08:13:24;101107.28;;;15.29;nan
37694;BME280;23531;50.122;8.644;2023-05-02T08:15:26;101106.84;;;15.32;nan
37694;BME280;23531;50.122;8.644;2023-05-02T08:17:28;101111.97;;;15.40;nan
37694;BME280;23531;50.122;8.644;2023-05-02T08:19:30;101114.69;;;15.40;nan
37694;BME280;23531;50.122;8.644;2023-05-02T08:21:31;101113.41;;;15.43;nan
37694;BME280;23531;50.122;8.644;2023-05-02T08:23:32;101110.59;;;15.31;nan
37694;BME280;23531;50.122;8.644;2023-05-02T08:25:34;101112.72;;;15.29;nan
37694;BME280;23531;50.122;8.644;2023-05-02T08:27:36;101112.41;;;15.37;nan
37694;BME280;23531;50.122;8.644;2023-05-02T08:29:37;101115.94;;;15.38;nan
37694;BME280;23531;50.122;8.644;2023-05-02T08:31:38;101122.50;;;15.30;nan
37694;BME280;23531;50.122;8.644;2023-05-02T08:33:41;101126.69;;;15.26;nan
37694;BME280;23531;50.122;8.644;2023-05-02T08:35:42;101126.34;;;15.22;nan
37694;BME280;23531;50.122;8.644;2023-05-02T08:37:43;101128.13;;;15.29;nan
37694;BME280;23531;50.122;8.644;2023-05-02T08:39:45;101130.41;;;15.32;nan
37694;BME280;23531;50.122;8.644;2023-05-02T08:41:46;101134.22;;;15.24;nan
37694;BME280;23531;50.122;8.644;2023-05-02T08:43:47;101138.16;;;15.28;nan
37694;BME280;23531;50.122;8.644;2023-05-02T08:45:49;101144.41;;;15.29;nan
37694;BME280;23531;50.122;8.644;2023-05-02T08:47:54;101144.00;;;15.25;nan
37694;BME280;23531;50.122;8.644;2023-05-02T08:49:57;101148.84;;;15.23;nan
37694;BME280;23531;50.122;8.644;2023-05-02T08:51:59;101147.22;;;15.15;nan
37694;BME280;23531;50.122;8.644;2023-05-02T08:54:01;101156.19;;;15.16;nan
37694;BME280;23531;50.122;8.644;2023-05-02T08:56:02;101157.84;;;15.17;nan
37694;BME280;23531;50.122;8.644;2023-05-02T08:58:04;101161.56;;;15.22;nan
37694;BME280;23531;50.122;8.644;2023-05-02T09:00:06;101158.28;;;15.14;nan
37694;BME280;23531;50.122;8.644;2023-05-02T09:02:10;101157.19;;;15.21;nan
37694;BME280;23531;50.122;8.644;2023-05-02T09:04:12;101161.38;;;15.17;nan
37694;BME280;23531;50.122;8.644;2023-05-02T09:06:16;101167.41;;;15.19;nan
37694;BME280;23531;50.122;8.644;2023-05-02T09:08:20;101168.16;;;15.26;nan
37694;BME280;23531;50.122;8.644;2023-05-02T09:10:21;101164.94;;;15.36;nan
37694;BME280;23531;50.122;8.644;2023-05-02T09:12:25;101177.66;;;15.36;nan
37694;BME280;23531;50.122;8.644;2023-05-02T09:14:27;101179.53;;;15.35;nan
37694;BME280;23531;50.122;8.644;2023-05-02T09:16:28;101178.06;;;15.39;nan
37694;BME280;23531;50.122;8.644;2023-05-02T09:18:30;101182.94;;;15.55;nan
37694;BME280;23531;50.122;8.644;2023-05-02T09:20:32;101177.81;;;15.66;nan
37694;BME280;23531;50.122;8.644;2023-05-02T09:22:47;101182.13;;;15.55;nan
37694;BME280;23531;50.122;8.644;2023-05-02T09:24:52;101176.16;;;15.65;nan
37694;BME280;23531;50.122;8.644;2023-05-02T09:26:58;101188.97;;;15.76;nan
37694;BME280;23531;50.122;8.644;2023-05-02T09:29:00;101183.03;;;15.85;nan
37694;BME280;23531;50.122;8.644;2023-05-02T09:31:05;101184.47;;;15.88;nan
37694;BME280;23531;50.122;8.644;2023-05-02T09:33:06;101185.06;;;15.90;nan
37694;BME280;23531;50.122;8.644;2023-05-02T09:35:08;101174.50;;;16.00;nan
37694;BME280;23531;50.122;8.644;2023-05-02T09:37:09;101188.50;;;16.15;nan
37694;BME280;23531;50.122;8.644;2023-05-02T09:39:14;101184.13;;;16.14;nan
37694;BME280;23531;50.122;8.644;2023-05-02T09:41:15;101173.28;;;16.14;nan
37694;BME280;23531;50.122;8.644;2023-05-02T09:43:18;101181.25;;;16.27;nan
37694;BME280;23531;50.122;8.644;2023-05-02T09:45:21;101181.78;;;16.18;nan
37694;BME280;23531;50.122;8.644;2023-05-02T09:47:23;101185.72;;;16.22;nan
37694;BME280;23531;50.122;8.644;2023-05-02T09:49:38;101179.13;;;16.29;nan
37694;BME280;23531;50.122;8.644;2023-05-02T09:51:40;101177.31;;;16.42;nan
37694;BME280;23531;50.122;8.644;2023-05-02T09:53:43;101188.75;;;16.44;nan
37694;BME280;23531;50.122;8.644;2023-05-02T09:55:46;101183.00;;;16.52;nan
37694;BME280;23531;50.122;8.644;2023-05-02T09:57:47;101183.75;;;16.59;nan
37694;BME280;23531;50.122;8.644;2023-05-02T09:59:52;101186.09;;;16.55;nan
37694;BME280;23531;50.122;8.644;2023-05-02T10:01:54;101189.63;;;16.56;nan
37694;BME280;23531;50.122;8.644;2023-05-02T10:03:56;101188.59;;;16.57;nan
37694;BME280;23531;50.122;8.644;2023-05-02T10:05:57;101190.53;;;16.50;nan
37694;BME280;23531;50.122;8.644;2023-05-02T10:07:58;101191.38;;;16.50;nan
37694;BME280;23531;50.122;8.644;2023-05-02T10:10:00;101187.38;;;16.53;nan
37694;BME280;23531;50.122;8.644;2023-05-02T10:12:03;101191.91;;;16.59;nan
37694;BME280;23531;50.122;8.644;2023-05-02T10:14:07;101192.13;;;16.57;nan
37694;BME280;23531;50.122;8.644;2023-05-02T10:16:11;101194.63;;;16.59;nan
37694;BME280;23531;50.122;8.644;2023-05-02T10:18:13;101196.00;;;16.61;nan
37694;BME280;23531;50.122;8.644;2023-05-02T10:20:17;101187.00;;;16.67;nan
37694;BME280;23531;50.122;8.644;2023-05-02T10:22:19;101189.25;;;16.52;nan
37694;BME280;23531;50.122;8.644;2023-05-02T10:24:20;101189.66;;;16.38;nan
37694;BME280;23531;50.122;8.644;2023-05-02T10:26:22;101188.16;;;16.42;nan
37694;BME280;23531;50.122;8.644;2023-05-02T10:28:25;101187.31;;;16.41;nan
37694;BME280;23531;50.122;8.644;2023-05-02T10:30:27;101178.50;;;16.46;nan
37694;BME280;23531;50.122;8.644;2023-05-02T10:32:28;101181.50;;;16.56;nan
37694;BME280;23531;50.122;8.644;2023-05-02T10:34:32;101178.56;;;16.57;nan
37694;BME280;23531;50.122;8.644;2023-05-02T10:36:34;101180.94;;;16.36;nan
37694;BME280;23531;50.122;8.644;2023-05-02T10:38:36;101184.84;;;16.40;nan
37694;BME280;23531;50.122;8.644;2023-05-02T10:40:37;101184.53;;;16.48;nan
37694;BME280;23531;50.122;8.644;2023-05-02T10:42:42;101174.25;;;16.50;nan
37694;BME280;23531;50.122;8.644;2023-05-02T10:44:47;101183.00;;;16.52;nan
37694;BME280;23531;50.122;8.644;2023-05-02T10:46:49;101173.06;;;16.46;nan
37694;BME280;23531;50.122;8.644;2023-05-02T10:48:58;101176.69;;;16.40;nan
37694;BME280;23531;50.122;8.644;2023-05-02T10:51:00;101176.91;;;16.38;nan
37694;BME280;23531;50.122;8.644;2023-05-02T10:53:15;101172.03;;;16.47;nan
37694;BME280;23531;50.122;8.644;2023-05-02T10:55:21;101171.09;;;16.53;nan
37694;BME280;23531;50.122;8.644;2023-05-02T10:57:23;101178.69;;;16.62;nan